Time;durP1;ratioP1;P1;durP2;ratioP2;P2;SDS_P1;SDS_P2;PMS_P1;PMS_P2;Temp;Humidity;BMP_temperature;BMP_pressure;BME280_temperature;BME280_humidity;BME280_pressure;Samples;Min_cycle;Max_cycle;Signal;HPM_P1;HPM_P2
2022/03/23 00:03:23;;;;;;;25.27;9.73;;;;;0.70;97518.00;;;;8398140;28;20224;-71
2022/03/23 00:07:26;;;;;;;21.80;9.47;;;;;0.60;97521.00;;;;8396833;28;20680;-71
2022/03/23 00:12:03;;;;;;;24.37;9.90;;;;;0.50;97513.00;;;;8397457;28;20550;-71
2022/03/23 00:16:08;;;;;;;19.67;8.80;;;;;0.50;97526.00;;;;8397191;28;20216;-70
2022/03/23 00:20:42;;;;;;;17.37;8.70;;;;;0.40;97517.00;;;;8396955;28;20223;-71
2022/03/23 00:24:45;;;;;;;22.97;9.37;;;;;0.40;97512.00;;;;8396577;28;20211;-73
2022/03/23 00:28:48;;;;;;;19.80;9.27;;;;;0.30;97504.00;;;;8397442;28;20277;-73
2022/03/23 00:33:25;;;;;;;18.13;8.83;;;;;0.30;97503.00;;;;8396443;28;20223;-70
2022/03/23 00:37:29;;;;;;;20.67;9.60;;;;;0.20;97497.00;;;;8396423;28;21155;-70
2022/03/23 00:41:32;;;;;;;17.37;8.30;;;;;0.20;97500.00;;;;8396624;28;20231;-70
2022/03/23 00:46:09;;;;;;;19.37;9.00;;;;;0.10;97504.00;;;;8396505;28;20285;-71
2022/03/23 00:50:12;;;;;;;19.53;9.07;;;;;0.10;97502.00;;;;8396135;28;20231;-72
2022/03/23 00:54:17;;;;;;;18.30;8.70;;;;;0.10;97494.00;;;;8396324;28;20227;-73
2022/03/23 00:58:19;;;;;;;17.40;9.23;;;;;0.10;97487.00;;;;8395365;28;20216;-72
2022/03/23 01:02:57;;;;;;;17.50;8.37;;;;;0.00;97491.00;;;;8395701;28;20502;-72
2022/03/23 01:07:00;;;;;;;17.33;8.63;;;;;-0.10;97495.00;;;;8393037;28;20214;-72
2022/03/23 01:11:05;;;;;;;21.73;9.00;;;;;-0.20;97485.00;;;;8395750;28;20254;-72
2022/03/23 01:15:39;;;;;;;22.47;9.30;;;;;-0.30;97486.00;;;;8395009;28;20227;-72
2022/03/23 01:19:42;;;;;;;19.57;9.80;;;;;-0.40;97483.00;;;;8395561;28;20223;-72
2022/03/23 01:24:16;;;;;;;21.03;8.77;;;;;-0.40;97491.00;;;;8394901;28;20298;-72
2022/03/23 01:28:21;;;;;;;17.13;8.83;;;;;-0.40;97491.00;;;;8394648;28;20617;-72
2022/03/23 01:32:25;;;;;;;20.20;8.57;;;;;-0.40;97492.00;;;;8394324;28;20227;-72
2022/03/23 01:37:02;;;;;;;17.97;9.37;;;;;-0.40;97484.00;;;;8394526;28;20227;-74
2022/03/23 01:41:05;;;;;;;23.23;9.37;;;;;-0.40;97484.00;;;;8394335;28;20220;-75
2022/03/23 01:45:11;;;;;;;22.27;9.00;;;;;-0.40;97483.00;;;;8394968;28;20262;-77
2022/03/23 01:49:14;;;;;;;18.00;8.90;;;;;-0.40;97488.00;;;;8393073;28;20220;-75
2022/03/23 01:53:17;;;;;;;20.90;9.13;;;;;-0.40;97486.00;;;;8394143;28;20273;-76
2022/03/23 01:57:52;;;;;;;22.73;10.17;;;;;-0.40;97486.00;;;;8394685;28;20254;-76
2022/03/23 02:01:57;;;;;;;23.27;10.87;;;;;-0.40;97487.00;;;;8393927;28;20302;-78
2022/03/23 02:06:31;;;;;;;19.63;9.27;;;;;-0.50;97489.00;;;;8393683;28;20302;-79
2022/03/23 02:10:36;;;;;;;18.57;8.60;;;;;-0.60;97487.00;;;;8393487;28;20306;-80
2022/03/23 02:14:39;;;;;;;21.33;9.87;;;;;-0.60;97488.00;;;;8394231;28;20307;-80
2022/03/23 02:18:44;;;;;;;21.27;9.90;;;;;-0.60;97487.00;;;;8393818;28;20294;-80
2022/03/23 02:22:49;;;;;;;22.93;9.50;;;;;-0.70;97480.00;;;;8394393;28;20636;-80
2022/03/23 02:27:23;;;;;;;22.37;9.23;;;;;-0.80;97484.00;;;;8393803;28;20266;-80
2022/03/23 02:31:26;;;;;;;22.77;9.20;;;;;-0.90;97483.00;;;;8393973;28;20307;-80
2022/03/23 02:36:01;;;;;;;19.53;9.33;;;;;-1.10;97482.00;;;;8393923;28;20231;-80
2022/03/23 02:40:08;;;;;;;19.00;8.93;;;;;-1.10;97481.00;;;;8394252;28;20603;-81
2022/03/23 02:44:14;;;;;;;18.43;9.00;;;;;-1.10;97474.00;;;;8393348;28;20361;-81
2022/03/23 02:48:52;;;;;;;18.37;9.20;;;;;-1.20;97476.00;;;;8394180;28;20625;-81
2022/03/23 03:02:02;;;;;;;20.23;8.87;;;;;-1.30;97475.00;;;;8421406;22;22251;-81
2022/03/23 03:06:06;;;;;;;18.93;9.33;;;;;-1.20;97480.00;;;;8413496;28;20227;-77
2022/03/23 03:10:09;;;;;;;20.83;8.83;;;;;-1.10;97478.00;;;;8413291;28;20254;-78
2022/03/23 03:14:14;;;;;;;17.03;7.90;;;;;-1.10;97472.00;;;;8407289;28;20782;-81
2022/03/23 03:18:17;;;;;;;18.43;8.90;;;;;-1.10;97470.00;;;;8399336;28;20230;-80
2022/03/23 03:22:20;;;;;;;20.70;10.17;;;;;-1.00;97471.00;;;;8402036;28;20251;-79
2022/03/23 03:26:23;;;;;;;18.57;8.77;;;;;-1.00;97468.00;;;;8412324;28;20566;-78
2022/03/23 03:30:28;;;;;;;18.97;9.50;;;;;-1.00;97476.00;;;;8408043;28;20231;-76
2022/03/23 03:34:31;;;;;;;21.23;8.90;;;;;-0.90;97470.00;;;;8410212;28;20295;-82
2022/03/23 03:38:35;;;;;;;25.27;9.60;;;;;-0.90;97473.00;;;;8406202;28;20285;-81
2022/03/23 03:42:38;;;;;;;15.90;8.63;;;;;-0.90;97477.00;;;;8408850;28;20248;-78
2022/03/23 03:46:45;;;;;;;20.27;9.33;;;;;-1.00;97477.00;;;;8414956;28;20229;-77
2022/03/23 03:50:49;;;;;;;18.20;8.80;;;;;-1.00;97479.00;;;;8407854;28;20258;-77
2022/03/23 03:54:52;;;;;;;21.53;8.70;;;;;-1.10;97479.00;;;;8413082;28;20230;-79
2022/03/23 03:58:55;;;;;;;19.10;8.10;;;;;-1.10;97474.00;;;;8409934;28;21017;-77
2022/03/23 04:02:59;;;;;;;18.63;8.97;;;;;-1.20;97473.00;;;;8410675;28;20227;-82
2022/03/23 04:07:04;;;;;;;20.73;8.43;;;;;-1.20;97472.00;;;;8411570;28;20720;-81
2022/03/23 04:11:08;;;;;;;20.87;9.23;;;;;-1.30;97467.00;;;;8407687;28;20234;-78
2022/03/23 04:15:11;;;;;;;20.20;8.53;;;;;-1.40;97479.00;;;;8413694;28;20272;-78
2022/03/23 04:19:15;;;;;;;18.57;8.13;;;;;-1.50;97484.00;;;;8406603;28;20238;-75
2022/03/23 04:23:19;;;;;;;20.83;9.60;;;;;-1.60;97468.00;;;;8396724;28;20249;-81
2022/03/23 04:27:22;;;;;;;18.73;8.53;;;;;-1.60;97472.00;;;;8412597;28;20260;-87
2022/03/23 04:31:25;;;;;;;22.00;9.70;;;;;-1.60;97476.00;;;;8424549;28;20233;-80
2022/03/23 04:35:30;;;;;;;17.40;8.40;;;;;-1.60;97482.00;;;;8409589;28;20254;-66
2022/03/23 04:39:33;;;;;;;18.57;8.80;;;;;-1.60;97482.00;;;;8417789;28;20235;-69
2022/03/23 04:43:38;;;;;;;19.57;9.07;;;;;-1.60;97488.00;;;;8412989;28;20231;-68
2022/03/23 04:47:42;;;;;;;16.03;8.80;;;;;-1.60;97485.00;;;;8414722;28;20230;-69
2022/03/23 04:51:46;;;;;;;17.23;8.53;;;;;-1.50;97488.00;;;;8412714;28;20229;-65
2022/03/23 04:55:49;;;;;;;18.10;9.00;;;;;-1.50;97486.00;;;;8411922;28;20270;-68
2022/03/23 04:59:53;;;;;;;22.03;9.53;;;;;-1.60;97490.00;;;;8418229;28;20216;-66
2022/03/23 05:03:57;;;;;;;19.73;9.17;;;;;-1.60;97492.00;;;;8414924;28;20242;-66
2022/03/23 05:08:01;;;;;;;19.47;9.27;;;;;-1.50;97496.00;;;;8410325;28;20229;-67
2022/03/23 05:12:05;;;;;;;19.33;8.87;;;;;-1.50;97498.00;;;;8422697;28;20566;-65
2022/03/23 05:16:10;;;;;;;18.93;8.70;;;;;-1.40;97493.00;;;;8414132;28;20224;-65
2022/03/23 05:20:17;;;;;;;19.70;8.70;;;;;-1.40;97494.00;;;;8421102;28;20224;-66
2022/03/23 05:24:22;;;;;;;17.63;8.37;;;;;-1.40;97498.00;;;;8404733;28;20237;-65
2022/03/23 05:28:28;;;;;;;17.33;7.63;;;;;-1.50;97504.00;;;;8405843;28;20231;-65
2022/03/23 05:32:32;;;;;;;20.00;8.83;;;;;-1.50;97503.00;;;;8421908;28;20310;-66
2022/03/23 05:36:35;;;;;;;19.73;8.63;;;;;-1.40;97503.00;;;;8411663;28;20233;-66
2022/03/23 05:40:40;;;;;;;20.00;9.17;;;;;-1.50;97501.00;;;;8413874;28;20231;-65
2022/03/23 05:44:43;;;;;;;21.67;9.67;;;;;-1.60;97518.00;;;;8412985;28;20822;-66
2022/03/23 05:48:46;;;;;;;20.87;9.17;;;;;-1.50;97512.00;;;;8412231;28;20229;-65
2022/03/23 05:52:50;;;;;;;20.90;8.83;;;;;-1.40;97509.00;;;;8407357;28;20242;-66
2022/03/23 05:56:54;;;;;;;21.40;9.17;;;;;-1.30;97501.00;;;;8411767;28;20230;-65
2022/03/23 06:00:57;;;;;;;22.07;9.70;;;;;-1.20;97499.00;;;;8406915;28;20667;-67
2022/03/23 06:05:01;;;;;;;22.63;10.00;;;;;-0.90;97505.00;;;;8407208;28;20223;-65
2022/03/23 06:09:04;;;;;;;20.47;9.17;;;;;-0.80;97501.00;;;;8409140;28;20233;-65
2022/03/23 06:13:09;;;;;;;24.50;8.43;;;;;-0.50;97500.00;;;;8409602;28;20232;-65
2022/03/23 06:17:12;;;;;;;20.00;9.23;;;;;-0.20;97510.00;;;;8405439;28;20606;-65
2022/03/23 06:21:16;;;;;;;21.27;8.60;;;;;0.00;97524.00;;;;8399119;28;20270;-68
2022/03/23 06:25:19;;;;;;;30.10;9.10;;;;;0.20;97526.00;;;;8417630;27;20250;-64
2022/03/23 06:29:24;;;;;;;16.93;8.57;;;;;0.30;97532.00;;;;8410461;28;20335;-66
2022/03/23 06:33:27;;;;;;;16.17;8.50;;;;;0.50;97533.00;;;;8398237;28;20229;-70
2022/03/23 06:37:31;;;;;;;25.03;9.17;;;;;0.70;97533.00;;;;8406057;28;20219;-64
2022/03/23 06:41:35;;;;;;;17.63;8.67;;;;;0.80;97536.00;;;;8400604;28;20237;-64
2022/03/23 06:45:42;;;;;;;21.17;8.80;;;;;1.10;97543.00;;;;8416065;28;20238;-64
2022/03/23 06:49:45;;;;;;;19.33;9.10;;;;;1.30;97542.00;;;;8402108;28;20227;-64
2022/03/23 06:53:48;;;;;;;18.83;8.77;;;;;1.60;97548.00;;;;8409319;28;20830;-65
2022/03/23 06:57:51;;;;;;;21.50;8.97;;;;;2.00;97547.00;;;;8410161;28;20238;-64
2022/03/23 07:01:56;;;;;;;18.53;9.47;;;;;2.20;97549.00;;;;8411225;28;20238;-64
2022/03/23 07:05:59;;;;;;;18.07;8.77;;;;;2.60;97561.00;;;;8410487;28;20750;-63
2022/03/23 07:10:02;;;;;;;18.53;8.83;;;;;2.90;97554.00;;;;8417280;28;20839;-63
2022/03/23 07:14:05;;;;;;;20.73;9.30;;;;;3.30;97557.00;;;;8403633;28;20706;-64
2022/03/23 07:18:10;;;;;;;20.57;10.40;;;;;3.70;97559.00;;;;8413973;28;20280;-63
2022/03/23 07:22:14;;;;;;;21.97;9.27;;;;;4.20;97566.00;;;;8407768;28;20249;-64
2022/03/23 07:26:18;;;;;;;19.27;9.37;;;;;4.80;97566.00;;;;8412839;28;20276;-65
2022/03/23 07:30:21;;;;;;;19.90;9.90;;;;;5.30;97574.00;;;;8415010;28;20241;-65
2022/03/23 07:34:25;;;;;;;15.90;8.77;;;;;5.80;97571.00;;;;8424741;28;20304;-65
2022/03/23 07:38:29;;;;;;;22.10;9.83;;;;;6.40;97581.00;;;;8423011;28;20223;-64
2022/03/23 07:42:33;;;;;;;21.10;10.07;;;;;6.90;97579.00;;;;8413920;28;20234;-65
2022/03/23 07:46:36;;;;;;;20.40;9.87;;;;;7.30;97576.00;;;;8416753;28;20670;-65
2022/03/23 07:50:40;;;;;;;15.77;8.90;;;;;7.50;97593.00;;;;8423933;28;20317;-65
2022/03/23 07:54:44;;;;;;;15.93;8.80;;;;;7.90;97589.00;;;;8414007;28;20677;-65
2022/03/23 07:58:47;;;;;;;17.13;9.23;;;;;8.20;97589.00;;;;8432552;28;20215;-64
2022/03/23 08:02:51;;;;;;;17.90;8.70;;;;;8.50;97587.00;;;;8414601;28;20230;-64
2022/03/23 08:06:57;;;;;;;21.93;8.67;;;;;8.90;97587.00;;;;8423083;28;20228;-64
2022/03/23 08:11:00;;;;;;;15.90;9.27;;;;;9.20;97597.00;;;;8413259;27;20226;-71
2022/03/23 08:15:03;;;;;;;20.93;8.53;;;;;9.40;97596.00;;;;8414978;28;20223;-69
2022/03/23 08:19:06;;;;;;;17.17;8.67;;;;;9.70;97615.00;;;;8414832;28;20241;-70
2022/03/23 08:23:15;;;;;;;15.63;8.03;;;;;9.90;97608.00;;;;8415722;28;20233;-68
2022/03/23 08:27:18;;;;;;;13.10;7.80;;;;;10.00;97605.00;;;;8414234;28;20225;-70
2022/03/23 08:31:22;;;;;;;13.80;7.47;;;;;10.30;97609.00;;;;8417273;28;20242;-70
2022/03/23 08:35:25;;;;;;;10.40;6.67;;;;;10.70;97604.00;;;;8417676;28;20229;-70
2022/03/23 08:39:30;;;;;;;10.57;6.40;;;;;11.20;97600.00;;;;8410346;28;20219;-69
2022/03/23 08:43:34;;;;;;;12.57;6.90;;;;;12.00;97609.00;;;;8411300;28;20677;-69
2022/03/23 08:47:38;;;;;;;13.03;7.40;;;;;12.60;97618.00;;;;8413680;28;20231;-68
2022/03/23 08:51:42;;;;;;;11.60;6.60;;;;;13.10;97611.00;;;;8420098;28;20241;-68
2022/03/23 08:55:47;;;;;;;10.88;6.68;;;;;13.50;97619.00;;;;8419335;28;20238;-69
2022/03/23 08:59:51;;;;;;;12.63;7.03;;;;;13.80;97612.00;;;;8417513;28;20560;-68
2022/03/23 09:04:00;;;;;;;10.65;6.25;;;;;14.30;97612.00;;;;8422836;28;20227;-69
2022/03/23 09:08:03;;;;;;;10.40;6.65;;;;;14.70;97619.00;;;;8420660;28;20767;-70
2022/03/23 09:12:09;;;;;;;11.70;6.57;;;;;15.20;97624.00;;;;8413001;28;20318;-70
2022/03/23 09:16:12;;;;;;;11.85;7.10;;;;;15.80;97622.00;;;;8414743;28;20228;-69
2022/03/23 09:20:16;;;;;;;11.30;7.05;;;;;16.70;97621.00;;;;8413424;28;20292;-69
2022/03/23 09:24:19;;;;;;;11.05;6.35;;;;;17.50;97626.00;;;;8389020;28;20238;-69
2022/03/23 09:28:24;;;;;;;10.82;6.60;;;;;17.90;97621.00;;;;8418265;28;20557;-70
2022/03/23 09:32:28;;;;;;;11.15;7.10;;;;;18.50;97618.00;;;;8412462;28;20785;-69
2022/03/23 09:40:52;;;;;;;10.73;6.43;;;;;19.10;97617.00;;;;8422867;28;20258;-68
2022/03/23 09:44:58;;;;;;;9.93;6.40;;;;;19.60;97618.00;;;;8416837;28;20240;-68
2022/03/23 09:49:01;;;;;;;12.02;6.00;;;;;20.20;97626.00;;;;8412112;27;21271;-68
2022/03/23 09:53:05;;;;;;;8.98;6.18;;;;;20.40;97611.00;;;;8419830;28;20219;-68
2022/03/23 09:57:08;;;;;;;10.48;6.45;;;;;20.80;97613.00;;;;8425304;28;20313;-68
2022/03/23 10:01:51;;;;;;;8.77;5.85;;;;;20.80;97615.00;;;;8407910;28;20222;-68
2022/03/23 10:06:32;;;;;;;8.68;5.88;;;;;20.80;97611.00;;;;8407355;28;20702;-68
2022/03/23 10:11:16;;;;;;;8.88;5.72;;;;;21.10;97611.00;;;;8407893;28;20254;-69
2022/03/23 10:16:01;;;;;;;7.68;5.43;;;;;21.30;97610.00;;;;8407974;28;20246;-69
2022/03/23 10:20:06;;;;;;;8.32;5.13;;;;;21.60;97619.00;;;;8363347;28;20223;-69
2022/03/23 10:24:32;;;;;;;5.72;4.45;;;;;21.80;97603.00;;;;8408415;28;20310;-69
2022/03/23 10:28:35;;;;;;;4.85;4.35;;;;;21.90;97607.00;;;;8417583;28;20863;-69
2022/03/23 10:32:41;;;;;;;5.43;4.20;;;;;21.50;97600.00;;;;8422097;28;20238;-68
2022/03/23 10:36:54;;;;;;;7.22;4.03;;;;;21.20;97595.00;;;;8414386;28;20752;-68
2022/03/23 10:41:08;;;;;;;5.22;4.13;;;;;21.00;97591.00;;;;8409270;28;20308;-68
2022/03/23 10:45:13;;;;;;;6.70;4.50;;;;;21.30;97591.00;;;;8414988;28;20226;-68
2022/03/23 10:49:16;;;;;;;5.47;4.35;;;;;21.30;97588.00;;;;8413659;28;20306;-67
2022/03/23 10:53:32;;;;;;;5.35;3.83;;;;;21.10;97588.00;;;;8418994;28;20325;-67
2022/03/23 10:58:27;;;;;;;6.10;3.63;;;;;21.20;97575.00;;;;8425371;28;20311;-69
2022/03/23 11:02:45;;;;;;;5.80;4.35;;;;;21.20;97570.00;;;;8416995;28;20309;-68
2022/03/23 11:06:49;;;;;;;5.78;3.92;;;;;21.40;97569.00;;;;8415482;28;20310;-69
2022/03/23 11:19:44;;;;;;;4.40;3.95;;;;;21.00;97565.00;;;;8408063;28;20275;-70
2022/03/23 11:23:47;;;;;;;4.68;3.90;;;;;20.80;97562.00;;;;8416211;28;20676;-71
2022/03/23 11:27:52;;;;;;;6.82;3.92;;;;;20.90;97556.00;;;;8414180;28;20684;-68
2022/03/23 11:31:55;;;;;;;4.20;3.78;;;;;21.20;97557.00;;;;8415696;28;20642;-70
2022/03/23 11:35:59;;;;;;;6.80;4.57;;;;;21.20;97552.00;;;;8412200;28;20556;-71
2022/03/23 11:40:03;;;;;;;5.55;4.07;;;;;21.10;97547.00;;;;8422239;28;20230;-70
2022/03/23 11:44:10;;;;;;;5.20;4.22;;;;;20.90;97539.00;;;;8415778;28;20228;-71
2022/03/23 11:48:30;;;;;;;6.75;4.22;;;;;20.90;97536.00;;;;8429438;28;20227;-70
2022/03/23 11:52:43;;;;;;;5.78;3.80;;;;;20.70;97530.00;;;;8415152;28;20344;-71
2022/03/23 11:56:53;;;;;;;8.02;4.40;;;;;20.70;97532.00;;;;8416745;28;20231;-70
2022/03/23 12:01:09;;;;;;;8.43;4.38;;;;;20.30;97521.00;;;;8426715;27;20315;-70
2022/03/23 12:05:29;;;;;;;8.70;4.93;;;;;20.20;97523.00;;;;8412228;28;20285;-70
2022/03/23 12:09:40;;;;;;;7.30;4.53;;;;;20.10;97524.00;;;;8411137;28;20217;-71
2022/03/23 12:13:56;;;;;;;5.75;3.70;;;;;19.60;97521.00;;;;8414388;28;20245;-71
2022/03/23 12:18:03;;;;;;;7.18;4.68;;;;;19.60;97504.00;;;;8412705;28;20227;-72
2022/03/23 12:22:15;;;;;;;5.85;3.92;;;;;19.70;97497.00;;;;8411231;28;20223;-71
2022/03/23 12:26:28;;;;;;;4.20;3.67;;;;;19.80;97491.00;;;;8421091;28;20776;-71
2022/03/23 12:30:41;;;;;;;7.50;3.60;;;;;20.00;97492.00;;;;8411594;28;20235;-72
2022/03/23 12:34:47;;;;;;;5.72;3.67;;;;;20.20;97490.00;;;;8423992;28;20215;-73
2022/03/23 12:38:59;;;;;;;6.32;3.50;;;;;20.10;97490.00;;;;8414620;28;20243;-70
2022/03/23 12:43:03;;;;;;;4.72;3.50;;;;;20.00;97491.00;;;;8414487;28;20222;-72
2022/03/23 12:47:08;;;;;;;5.28;3.95;;;;;20.00;97485.00;;;;8415293;28;20582;-71
2022/03/23 13:00:09;;;;;;;6.30;3.38;;;;;19.50;97485.00;;;;8411788;28;20231;-74
2022/03/23 13:04:52;;;;;;;4.68;4.10;;;;;19.30;97483.00;;;;8404825;28;20232;-72
2022/03/23 13:08:57;;;;;;;3.50;3.20;;;;;19.30;97476.00;;;;8396193;28;21072;-71
2022/03/23 13:13:07;;;;;;;4.57;3.33;;;;;19.40;97474.00;;;;8413575;28;20264;-72
2022/03/23 13:17:11;;;;;;;15.82;3.53;;;;;19.50;97463.00;;;;8423613;28;20797;-72
2022/03/23 13:21:18;;;;;;;11.50;3.13;;;;;19.50;97460.00;;;;8415811;28;20235;-72
2022/03/23 13:25:23;;;;;;;3.78;2.92;;;;;19.60;97454.00;;;;8415505;28;20676;-71
2022/03/23 13:29:27;;;;;;;7.07;3.40;;;;;19.60;97449.00;;;;8405288;27;20256;-71
2022/03/23 13:33:36;;;;;;;4.22;3.58;;;;;19.70;97441.00;;;;8411298;28;20300;-72
2022/03/23 13:37:55;;;;;;;3.58;3.28;;;;;19.90;97440.00;;;;8404344;28;20234;-70
2022/03/23 13:46:20;;;;;;;4.00;3.28;;;;;20.00;97428.00;;;;8413309;28;20680;-72
2022/03/23 13:50:27;;;;;;;3.40;3.03;;;;;20.10;97427.00;;;;8409101;28;20659;-72
2022/03/23 13:54:30;;;;;;;3.85;3.25;;;;;20.30;97429.00;;;;8412396;28;20227;-69
2022/03/23 13:58:34;;;;;;;5.60;2.90;;;;;20.50;97425.00;;;;8411541;28;20227;-70
2022/03/23 14:02:37;;;;;;;4.95;2.90;;;;;20.90;97425.00;;;;8399294;28;20241;-75
2022/03/23 14:06:58;;;;;;;4.75;3.10;;;;;21.40;97420.00;;;;8408959;28;20230;-76
2022/03/23 14:11:02;;;;;;;2.90;2.70;;;;;21.90;97417.00;;;;8398631;28;20324;-78
2022/03/23 14:15:07;;;;;;;3.20;2.90;;;;;22.30;97413.00;;;;8404303;28;20565;-76
2022/03/23 14:19:11;;;;;;;3.92;3.40;;;;;22.60;97425.00;;;;8401522;28;20224;-77
2022/03/23 14:23:14;;;;;;;3.75;2.83;;;;;22.90;97418.00;;;;8406741;28;20219;-77
2022/03/23 14:27:23;;;;;;;3.78;3.33;;;;;23.10;97409.00;;;;8414923;28;20236;-75
2022/03/23 14:31:28;;;;;;;4.30;3.50;;;;;23.30;97403.00;;;;8413914;28;20219;-74
2022/03/23 14:35:38;;;;;;;5.53;3.30;;;;;23.50;97401.00;;;;8403837;28;20225;-78
2022/03/23 14:39:44;;;;;;;4.55;3.17;;;;;23.60;97398.00;;;;8414118;28;20700;-75
2022/03/23 14:43:49;;;;;;;6.68;3.10;;;;;23.70;97393.00;;;;8414957;28;20223;-77
2022/03/23 14:47:54;;;;;;;3.72;3.40;;;;;23.80;97392.00;;;;8414165;28;20302;-74
2022/03/23 14:51:57;;;;;;;4.03;3.05;;;;;23.60;97388.00;;;;8416229;28;20651;-77
2022/03/23 14:56:01;;;;;;;7.40;3.45;;;;;23.60;97386.00;;;;8420275;28;20671;-72
2022/03/23 15:00:05;;;;;;;3.35;2.95;;;;;23.60;97377.00;;;;8421411;28;20233;-74
2022/03/23 15:04:10;;;;;;;4.32;2.97;;;;;23.50;97381.00;;;;8397659;28;20745;-74
2022/03/23 15:16:55;;;;;;;5.00;2.65;;;;;22.90;97377.00;;;;8422199;27;20791;-73
2022/03/23 15:21:02;;;;;;;2.95;2.70;;;;;22.80;97378.00;;;;8406837;28;20243;-74
2022/03/23 15:25:06;;;;;;;5.85;2.40;;;;;22.60;97377.00;;;;8421668;28;20273;-72
2022/03/23 15:29:09;;;;;;;3.10;2.90;;;;;22.70;97374.00;;;;8419995;28;20591;-75
2022/03/23 15:33:14;;;;;;;3.78;2.45;;;;;22.70;97366.00;;;;8408522;28;20226;-79
2022/03/23 15:37:21;;;;;;;3.10;2.80;;;;;22.70;97360.00;;;;8420447;28;20237;-74
2022/03/23 15:41:24;;;;;;;4.35;3.30;;;;;22.30;97369.00;;;;8421624;28;20231;-75
2022/03/23 15:45:28;;;;;;;13.32;3.60;;;;;22.10;97366.00;;;;8419633;28;20242;-72
2022/03/23 15:49:31;;;;;;;7.90;3.35;;;;;22.00;97368.00;;;;8420476;28;20302;-78
2022/03/23 15:53:36;;;;;;;7.28;3.20;;;;;21.80;97359.00;;;;8418450;28;20228;-74
2022/03/23 15:57:40;;;;;;;6.97;3.33;;;;;21.80;97368.00;;;;8410649;28;20223;-75
2022/03/23 16:01:45;;;;;;;9.43;3.95;;;;;21.70;97364.00;;;;8415349;28;20318;-74
2022/03/23 16:05:49;;;;;;;9.50;4.13;;;;;21.70;97364.00;;;;8402989;28;20241;-73
2022/03/23 16:09:54;;;;;;;5.18;3.92;;;;;21.80;97363.00;;;;8410095;28;20239;-75
2022/03/23 16:13:59;;;;;;;3.38;2.92;;;;;21.70;97369.00;;;;8419516;28;20233;-74
2022/03/23 16:18:02;;;;;;;6.93;3.22;;;;;21.70;97368.00;;;;8419591;28;20303;-74
2022/03/23 16:22:06;;;;;;;3.80;2.97;;;;;21.80;97366.00;;;;8394398;28;20223;-76
2022/03/23 16:26:14;;;;;;;8.45;4.25;;;;;21.40;97360.00;;;;8412467;28;20237;-75
2022/03/23 16:30:19;;;;;;;8.77;4.60;;;;;21.00;97358.00;;;;8418643;28;20736;-75
2022/03/23 16:34:23;;;;;;;6.47;3.88;;;;;20.60;97357.00;;;;8418820;28;20261;-78
2022/03/23 16:38:26;;;;;;;5.22;4.53;;;;;20.10;97354.00;;;;8419302;28;20235;-76
2022/03/23 16:42:30;;;;;;;5.18;3.20;;;;;19.70;97352.00;;;;8411085;28;20227;-74
2022/03/23 16:46:34;;;;;;;7.47;3.78;;;;;19.30;97352.00;;;;8411756;28;20708;-74
2022/03/23 16:50:37;;;;;;;4.50;3.63;;;;;19.00;97347.00;;;;8417998;28;20770;-74
2022/03/23 16:54:41;;;;;;;13.00;6.57;;;;;18.70;97351.00;;;;8405267;28;20224;-75
2022/03/23 16:58:46;;;;;;;5.28;3.50;;;;;18.30;97353.00;;;;8409302;28;20892;-75
2022/03/23 17:15:54;;;;;;;6.47;3.75;;;;;15.90;97360.00;;;;8410167;28;20310;-75
2022/03/23 17:19:58;;;;;;;6.53;3.30;;;;;15.30;97354.00;;;;8402199;28;20877;-74
2022/03/23 17:24:01;;;;;;;13.90;4.38;;;;;14.70;97349.00;;;;8396181;28;20222;-74
2022/03/23 17:28:05;;;;;;;10.05;4.20;;;;;14.00;97355.00;;;;8400854;28;20261;-75
2022/03/23 17:32:11;;;;;;;8.77;4.00;;;;;13.60;97352.00;;;;8399995;28;20298;-75
2022/03/23 17:36:15;;;;;;;7.70;3.80;;;;;13.30;97356.00;;;;8398144;28;20728;-77
2022/03/23 17:40:19;;;;;;;7.43;4.22;;;;;12.80;97356.00;;;;8405313;28;20226;-74
2022/03/23 17:44:22;;;;;;;5.72;3.47;;;;;12.30;97354.00;;;;8399784;28;20225;-72
2022/03/23 17:48:27;;;;;;;7.13;3.65;;;;;12.00;97359.00;;;;8401598;28;20230;-70
2022/03/23 17:52:30;;;;;;;5.05;3.53;;;;;11.80;97356.00;;;;8408255;28;20949;-71
2022/03/23 17:56:33;;;;;;;7.37;3.70;;;;;11.50;97357.00;;;;8404274;28;20673;-73
2022/03/23 18:00:37;;;;;;;5.60;3.78;;;;;11.30;97356.00;;;;8412061;28;20215;-73
2022/03/23 18:04:42;;;;;;;7.63;3.83;;;;;11.10;97356.00;;;;8407176;28;20301;-75
2022/03/23 18:08:45;;;;;;;10.33;3.80;;;;;11.00;97357.00;;;;8407530;28;20225;-72
2022/03/23 18:12:48;;;;;;;7.70;4.13;;;;;10.70;97364.00;;;;8412968;28;20237;-73
2022/03/23 18:16:51;;;;;;;9.90;3.73;;;;;10.50;97362.00;;;;8402870;28;20220;-74
2022/03/23 18:21:02;;;;;;;10.57;4.33;;;;;10.30;97363.00;;;;8402385;28;20632;-79
2022/03/23 18:25:08;;;;;;;8.27;4.33;;;;;10.10;97371.00;;;;8400703;28;20242;-77
2022/03/23 18:29:12;;;;;;;7.40;3.87;;;;;9.80;97372.00;;;;8405277;28;20627;-75
2022/03/23 18:33:15;;;;;;;4.90;3.50;;;;;9.50;97365.00;;;;8401263;28;20227;-72
2022/03/23 18:37:20;;;;;;;6.77;3.77;;;;;9.30;97362.00;;;;8401224;28;20246;-73
2022/03/23 18:41:25;;;;;;;8.53;4.53;;;;;9.20;97364.00;;;;8401290;28;20296;-73
2022/03/23 18:45:28;;;;;;;8.17;4.30;;;;;8.90;97361.00;;;;8401753;28;20227;-72
2022/03/23 18:49:31;;;;;;;9.80;4.83;;;;;8.70;97361.00;;;;8404109;28;20223;-74
2022/03/23 18:53:36;;;;;;;7.53;4.53;;;;;8.50;97377.00;;;;8390398;28;20608;-73
2022/03/23 18:57:39;;;;;;;8.90;4.80;;;;;8.40;97373.00;;;;8408210;28;20223;-73
2022/03/23 19:01:43;;;;;;;8.63;5.00;;;;;8.30;97369.00;;;;8402211;28;20313;-72
2022/03/23 19:05:50;;;;;;;13.10;5.87;;;;;8.20;97374.00;;;;8407014;28;20250;-72
2022/03/23 19:09:55;;;;;;;10.27;5.43;;;;;8.00;97370.00;;;;8410582;28;20227;-73
2022/03/23 19:13:58;;;;;;;14.70;5.40;;;;;7.90;97364.00;;;;8409312;28;20260;-74
2022/03/23 19:18:02;;;;;;;10.00;5.43;;;;;7.70;97364.00;;;;8408632;27;20704;-74
2022/03/23 19:22:06;;;;;;;17.57;6.17;;;;;7.50;97361.00;;;;8401221;28;20931;-73
2022/03/23 19:26:12;;;;;;;10.10;5.63;;;;;7.50;97361.00;;;;8406352;28;20231;-73
2022/03/23 19:30:15;;;;;;;13.13;6.30;;;;;7.40;97365.00;;;;8404968;28;20235;-72
2022/03/23 19:34:19;;;;;;;11.93;6.10;;;;;7.40;97366.00;;;;8395946;28;20314;-74
2022/03/23 19:38:22;;;;;;;13.50;5.30;;;;;7.20;97365.00;;;;8409405;28;20250;-74
2022/03/23 19:42:27;;;;;;;11.10;6.07;;;;;7.10;97369.00;;;;8413806;28;20231;-71
2022/03/23 19:46:30;;;;;;;10.93;5.67;;;;;7.00;97370.00;;;;8414831;28;20236;-73
2022/03/23 19:50:33;;;;;;;8.33;4.87;;;;;6.80;97372.00;;;;8416994;28;20229;-70
2022/03/23 19:54:37;;;;;;;9.50;4.93;;;;;6.60;97359.00;;;;8411012;28;20583;-75
2022/03/23 19:58:42;;;;;;;11.50;5.70;;;;;6.40;97363.00;;;;8412163;28;20258;-74
2022/03/23 20:02:45;;;;;;;10.23;5.23;;;;;6.20;97363.00;;;;8414961;28;20225;-71
2022/03/23 20:06:49;;;;;;;10.97;5.00;;;;;6.00;97365.00;;;;8413005;28;20294;-72
2022/03/23 20:10:52;;;;;;;14.57;6.53;;;;;5.90;97363.00;;;;8413630;28;20953;-72
2022/03/23 20:14:57;;;;;;;15.17;7.10;;;;;5.90;97367.00;;;;8409523;28;20332;-76
2022/03/23 20:19:00;;;;;;;17.97;6.50;;;;;5.80;97369.00;;;;8405400;28;20234;-73
2022/03/23 20:23:03;;;;;;;14.33;6.30;;;;;5.60;97364.00;;;;8414227;28;20225;-72
2022/03/23 20:27:07;;;;;;;15.60;6.33;;;;;5.40;97362.00;;;;8411874;28;20316;-74
2022/03/23 20:31:13;;;;;;;17.53;7.07;;;;;5.30;97368.00;;;;8401955;28;20252;-76
2022/03/23 20:35:17;;;;;;;15.00;6.50;;;;;5.20;97364.00;;;;8410762;28;20230;-73
2022/03/23 20:39:20;;;;;;;14.97;6.50;;;;;5.10;97362.00;;;;8405993;28;20239;-78
2022/03/23 20:43:25;;;;;;;18.33;7.63;;;;;5.00;97370.00;;;;8414204;28;20235;-75
2022/03/23 20:47:35;;;;;;;14.87;8.03;;;;;4.90;97364.00;;;;8409578;28;20228;-76
2022/03/23 20:51:40;;;;;;;20.13;7.80;;;;;4.80;97375.00;;;;8410840;28;20239;-74
2022/03/23 20:55:45;;;;;;;13.90;7.50;;;;;4.60;97361.00;;;;8411070;28;20680;-75
2022/03/23 20:59:48;;;;;;;19.57;7.73;;;;;4.50;97361.00;;;;8404209;28;20320;-75
2022/03/23 21:03:53;;;;;;;14.63;7.43;;;;;4.40;97364.00;;;;8409027;28;20227;-74
2022/03/23 21:08:04;;;;;;;17.17;9.03;;;;;4.30;97360.00;;;;8408438;28;20271;-74
2022/03/23 21:12:08;;;;;;;19.67;8.80;;;;;4.20;97355.00;;;;8411037;28;20247;-75
2022/03/23 21:16:12;;;;;;;23.53;9.63;;;;;4.20;97356.00;;;;8405303;28;20226;-73
2022/03/23 21:20:17;;;;;;;18.50;9.97;;;;;4.20;97363.00;;;;8409988;28;20232;-75
2022/03/23 21:24:21;;;;;;;22.57;10.83;;;;;4.20;97364.00;;;;8406573;28;20231;-74
2022/03/23 21:28:25;;;;;;;22.13;10.33;;;;;4.20;97367.00;;;;8404357;28;20311;-77